Time;durP1;ratioP1;P1;durP2;ratioP2;P2;SDS_P1;SDS_P2;PMS_P1;PMS_P2;Temp;Humidity;BMP_temperature;BMP_pressure;BME280_temperature;BME280_humidity;BME280_pressure;Samples;Min_cycle;Max_cycle;Signal;HPM_P1;HPM_P2
2024/01/06 00:00:45;;;;;;;;;;;;;;;;;;5085146;28;19923;-52
2024/01/06 00:03:11;;;;;;;;;;;;;;;;;;5091899;28;19916;-52
2024/01/06 00:05:37;;;;;;;;;;;;;;;;;;5091177;28;20002;-52
2024/01/06 00:08:03;;;;;;;;;;;;;;;;;;5084988;28;19962;-49
2024/01/06 00:10:29;;;;;;;;;;;;;;;;;;5092913;28;20265;-51
2024/01/06 00:12:55;;;;;;;;;;;;;;;;;;5093538;28;19920;-49
2024/01/06 00:15:21;;;;;;;;;;;;;;;;;;5093920;28;19981;-50
2024/01/06 00:17:47;;;;;;;;;;;;;;;;;;5094023;28;19948;-49
2024/01/06 00:20:13;;;;;;;;;;;;;;;;;;5085062;28;19965;-50
2024/01/06 00:22:38;;;;;;;;;;;;;;;;;;5091448;28;19924;-51
2024/01/06 00:25:04;;;;;;;;;;;;;;;;;;5093926;28;19908;-49
2024/01/06 00:27:30;;;;;;;;;;;;;;;;;;5093019;28;19912;-51
2024/01/06 00:29:56;;;;;;;;;;;;;;;;;;5093307;28;19920;-51
2024/01/06 00:32:22;;;;;;;;;;;;;;;;;;5093543;28;19978;-51
2024/01/06 00:34:48;;;;;;;;;;;;;;;;;;5080677;28;20003;-50
2024/01/06 00:37:14;;;;;;;;;;;;;;;;;;5088452;28;19923;-48
2024/01/06 00:39:40;;;;;;;;;;;;;;;;;;5087629;28;20006;-51
2024/01/06 00:42:06;;;;;;;;;;;;;;;;;;5086592;28;20372;-49
2024/01/06 00:44:32;;;;;;;;;;;;;;;;;;5082880;28;19922;-48
2024/01/06 00:46:57;;;;;;;;;;;;;;;;;;5093498;28;20364;-50
2024/01/06 00:49:23;;;;;;;;;;;;;;;;;;5092944;28;19912;-50
2024/01/06 00:51:50;;;;;;;;;;;;;;;;;;5092463;28;20057;-48
2024/01/06 00:54:16;;;;;;;;;;;;;;;;;;5091619;28;19918;-52
2024/01/06 00:56:42;;;;;;;;;;;;;;;;;;5092644;28;20035;-50
2024/01/06 00:59:08;;;;;;;;;;;;;;;;;;5093011;28;20586;-51
2024/01/06 01:01:34;;;;;;;;;;;;;;;;;;5082902;28;19955;-52
2024/01/06 01:04:00;;;;;;;;;;;;;;;;;;5084451;28;19951;-50
2024/01/06 01:06:26;;;;;;;;;;;;;;;;;;5091788;28;20382;-50
2024/01/06 01:08:52;;;;;;;;;;;;;;;;;;5072953;28;19917;-51
2024/01/06 01:11:18;;;;;;;;;;;;;;;;;;5082729;28;20288;-52
2024/01/06 01:13:43;;;;;;;;;;;;;;;;;;5090740;28;20003;-51
2024/01/06 01:16:09;;;;;;;;;;;;;;;;;;5092640;28;20288;-52
2024/01/06 01:18:35;;;;;;;;;;;;;;;;;;5085505;28;19919;-50
2024/01/06 01:21:01;;;;;;;;;;;;;;;;;;5083538;28;19947;-51
2024/01/06 01:23:27;;;;;;;;;;;;;;;;;;5091614;28;20005;-52
2024/01/06 01:25:53;;;;;;;;;;;;;;;;;;5077951;28;20632;-52
2024/01/06 01:28:19;;;;;;;;;;;;;;;;;;5089758;28;19959;-53
2024/01/06 01:30:45;;;;;;;;;;;;;;;;;;5091371;28;19995;-51
2024/01/06 01:33:11;;;;;;;;;;;;;;;;;;5092160;28;20295;-52
2024/01/06 01:35:37;;;;;;;;;;;;;;;;;;5091595;28;20364;-50
2024/01/06 01:38:03;;;;;;;;;;;;;;;;;;5084939;28;20014;-52
2024/01/06 01:40:28;;;;;;;;;;;;;;;;;;5091585;28;20011;-51
2024/01/06 01:42:54;;;;;;;;;;;;;;;;;;5088218;28;20368;-52
2024/01/06 01:45:20;;;;;;;;;;;;;;;;;;5090325;28;19913;-53
2024/01/06 01:47:46;;;;;;;;;;;;;;;;;;5091678;28;20372;-51
2024/01/06 01:50:12;;;;;;;;;;;;;;;;;;5091217;28;20053;-52
2024/01/06 01:52:38;;;;;;;;;;;;;;;;;;5083642;28;20296;-50
2024/01/06 01:55:04;;;;;;;;;;;;;;;;;;5076433;28;20003;-52
2024/01/06 01:57:30;;;;;;;;;;;;;;;;;;5088843;28;20023;-56
2024/01/06 01:59:56;;;;;;;;;;;;;;;;;;5089740;28;19913;-52
2024/01/06 02:02:22;;;;;;;;;;;;;;;;;;5091786;28;20413;-48
2024/01/06 02:04:48;;;;;;;;;;;;;;;;;;5082751;28;19956;-57
2024/01/06 02:07:14;;;;;;;;;;;;;;;;;;5079080;28;19948;-55
2024/01/06 02:09:40;;;;;;;;;;;;;;;;;;5088224;28;19912;-54
2024/01/06 02:12:06;;;;;;;;;;;;;;;;;;5085689;28;19963;-57
2024/01/06 02:14:32;;;;;;;;;;;;;;;;;;5091533;28;20440;-55
2024/01/06 02:16:58;;;;;;;;;;;;;;;;;;5089500;28;20364;-54
2024/01/06 02:19:24;;;;;;;;;;;;;;;;;;5086652;28;19923;-55
2024/01/06 02:21:50;;;;;;;;;;;;;;;;;;5084365;28;20011;-55
2024/01/06 02:24:16;;;;;;;;;;;;;;;;;;5087922;28;19917;-54
2024/01/06 02:26:42;;;;;;;;;;;;;;;;;;5094709;28;19982;-55
2024/01/06 02:29:08;;;;;;;;;;;;;;;;;;5092969;28;20341;-54
2024/01/06 02:31:33;;;;;;;;;;;;;;;;;;5084949;28;19920;-55
2024/01/06 02:33:59;;;;;;;;;;;;;;;;;;5082846;28;19919;-52
2024/01/06 02:36:25;;;;;;;;;;;;;;;;;;5093911;28;20010;-54
2024/01/06 02:38:51;;;;;;;;;;;;;;;;;;5095611;28;19918;-56
2024/01/06 02:41:17;;;;;;;;;;;;;;;;;;5082577;28;19982;-54
2024/01/06 02:43:43;;;;;;;;;;;;;;;;;;5092316;28;19912;-55
2024/01/06 02:46:09;;;;;;;;;;;;;;;;;;5095239;28;20370;-55
2024/01/06 02:48:35;;;;;;;;;;;;;;;;;;5088889;28;19923;-55
2024/01/06 02:51:01;;;;;;;;;;;;;;;;;;5089518;28;20272;-55
2024/01/06 02:53:26;;;;;;;;;;;;;;;;;;5094725;28;19912;-55
2024/01/06 02:55:52;;;;;;;;;;;;;;;;;;5088067;28;20014;-54
2024/01/06 02:58:18;;;;;;;;;;;;;;;;;;5091305;28;19998;-55
2024/01/06 03:00:44;;;;;;;;;;;;;;;;;;5095159;28;19919;-56
2024/01/06 03:03:10;;;;;;;;;;;;;;;;;;5093637;28;20404;-55
2024/01/06 03:05:36;;;;;;;;;;;;;;;;;;5085143;28;19913;-56
2024/01/06 03:08:02;;;;;;;;;;;;;;;;;;5090931;28;19961;-55
2024/01/06 03:10:28;;;;;;;;;;;;;;;;;;5094672;28;19912;-55
2024/01/06 03:12:54;;;;;;;;;;;;;;;;;;5081962;28;20624;-52
2024/01/06 03:15:20;;;;;;;;;;;;;;;;;;5075098;28;19934;-52
2024/01/06 03:17:46;;;;;;;;;;;;;;;;;;5093818;28;20023;-53
2024/01/06 03:20:12;;;;;;;;;;;;;;;;;;5093832;28;20371;-52
2024/01/06 03:22:38;;;;;;;;;;;;;;;;;;5093542;28;19959;-49
2024/01/06 03:25:04;;;;;;;;;;;;;;;;;;5093432;28;19912;-52
2024/01/06 03:27:30;;;;;;;;;;;;;;;;;;5079598;28;19934;-52
2024/01/06 03:29:55;;;;;;;;;;;;;;;;;;5083757;28;19959;-51
2024/01/06 03:32:21;;;;;;;;;;;;;;;;;;5074577;28;19921;-52
2024/01/06 03:34:47;;;;;;;;;;;;;;;;;;5084153;28;20428;-51
2024/01/06 03:37:13;;;;;;;;;;;;;;;;;;5081280;28;19943;-52
2024/01/06 03:39:39;;;;;;;;;;;;;;;;;;5093926;28;19951;-53
2024/01/06 03:42:05;;;;;;;;;;;;;;;;;;5091436;28;19940;-51
2024/01/06 03:44:33;;;;;;;;;;;;;;;;;;5087992;28;19942;-51
2024/01/06 03:46:59;;;;;;;;;;;;;;;;;;5087082;28;19919;-52
2024/01/06 03:49:25;;;;;;;;;;;;;;;;;;5089430;28;20002;-51
2024/01/06 03:51:51;;;;;;;;;;;;;;;;;;5091666;28;19912;-52
2024/01/06 03:54:17;;;;;;;;;;;;;;;;;;5086950;28;20387;-51
2024/01/06 03:56:43;;;;;;;;;;;;;;;;;;5093095;28;19947;-52
2024/01/06 03:59:08;;;;;;;;;;;;;;;;;;5081022;28;19913;-52
2024/01/06 04:01:35;;;;;;;;;;;;;;;;;;5086632;28;19967;-52
2024/01/06 04:04:01;;;;;;;;;;;;;;;;;;5081607;28;20211;-52
2024/01/06 04:06:27;;;;;;;;;;;;;;;;;;5088868;28;19961;-52
2024/01/06 04:08:54;;;;;;;;;;;;;;;;;;5092484;28;20006;-51
2024/01/06 04:11:20;;;;;;;;;;;;;;;;;;5092666;28;19912;-50
2024/01/06 04:13:46;;;;;;;;;;;;;;;;;;5093196;28;20279;-51
2024/01/06 04:16:12;;;;;;;;;;;;;;;;;;5090328;28;19943;-49
2024/01/06 04:18:38;;;;;;;;;;;;;;;;;;5073798;28;20010;-50
2024/01/06 04:21:04;;;;;;;;;;;;;;;;;;5089046;28;19937;-53
2024/01/06 04:23:30;;;;;;;;;;;;;;;;;;5090437;28;19917;-48
2024/01/06 04:25:56;;;;;;;;;;;;;;;;;;5074087;28;19923;-50
2024/01/06 04:28:22;;;;;;;;;;;;;;;;;;5073110;28;19967;-48
2024/01/06 04:30:48;;;;;;;;;;;;;;;;;;5073009;28;19993;-51
2024/01/06 04:33:14;;;;;;;;;;;;;;;;;;5092225;28;19912;-49
2024/01/06 04:35:40;;;;;;;;;;;;;;;;;;5079362;28;19912;-50
2024/01/06 04:38:06;;;;;;;;;;;;;;;;;;5085348;28;19916;-48
2024/01/06 04:40:32;;;;;;;;;;;;;;;;;;5073055;28;20007;-48
2024/01/06 04:42:58;;;;;;;;;;;;;;;;;;5092197;28;20354;-50
2024/01/06 04:45:24;;;;;;;;;;;;;;;;;;5092268;28;19963;-51
2024/01/06 04:47:50;;;;;;;;;;;;;;;;;;5092158;28;20339;-48
2024/01/06 04:50:15;;;;;;;;;;;;;;;;;;5092380;28;19912;-48
2024/01/06 04:52:41;;;;;;;;;;;;;;;;;;5084369;28;19912;-50
2024/01/06 04:55:08;;;;;;;;;;;;;;;;;;5092166;28;19916;-49
2024/01/06 04:57:34;;;;;;;;;;;;;;;;;;5087277;28;19912;-51
2024/01/06 04:59:59;;;;;;;;;;;;;;;;;;5092841;28;19981;-51
2024/01/06 05:02:25;;;;;;;;;;;;;;;;;;5088982;28;19924;-50
2024/01/06 05:04:51;;;;;;;;;;;;;;;;;;5079949;28;20388;-51
2024/01/06 05:07:17;;;;;;;;;;;;;;;;;;5087362;28;19997;-51
2024/01/06 05:09:43;;;;;;;;;;;;;;;;;;5092381;28;19989;-49
2024/01/06 05:12:09;;;;;;;;;;;;;;;;;;5091674;28;19956;-51
2024/01/06 05:14:35;;;;;;;;;;;;;;;;;;5088398;28;20016;-50
2024/01/06 05:17:01;;;;;;;;;;;;;;;;;;5092092;28;19918;-49
2024/01/06 05:19:27;;;;;;;;;;;;;;;;;;5091264;28;19911;-51
2024/01/06 05:21:52;;;;;;;;;;;;;;;;;;5092221;28;20257;-50
2024/01/06 05:24:19;;;;;;;;;;;;;;;;;;5084188;28;20295;-53
2024/01/06 05:26:45;;;;;;;;;;;;;;;;;;5091100;28;19916;-51
2024/01/06 05:29:11;;;;;;;;;;;;;;;;;;5087814;28;19966;-50
2024/01/06 05:31:36;;;;;;;;;;;;;;;;;;5090794;28;20031;-51
2024/01/06 05:34:02;;;;;;;;;;;;;;;;;;5090136;28;19920;-55
2024/01/06 05:36:28;;;;;;;;;;;;;;;;;;5092336;28;19995;-53
2024/01/06 05:38:54;;;;;;;;;;;;;;;;;;5086667;28;19918;-56
2024/01/06 05:41:20;;;;;;;;;;;;;;;;;;5091622;28;20007;-54
2024/01/06 05:43:46;;;;;;;;;;;;;;;;;;5092281;28;19912;-54
2024/01/06 05:46:12;;;;;;;;;;;;;;;;;;5085442;28;20296;-56
2024/01/06 05:48:38;;;;;;;;;;;;;;;;;;5085528;28;20008;-55
2024/01/06 05:51:04;;;;;;;;;;;;;;;;;;5091242;28;19998;-57
2024/01/06 05:53:30;;;;;;;;;;;;;;;;;;5091549;28;19912;-57
2024/01/06 05:55:55;;;;;;;;;;;;;;;;;;5086098;28;19912;-58
2024/01/06 05:58:21;;;;;;;;;;;;;;;;;;5086565;28;19962;-57
2024/01/06 06:00:48;;;;;;;;;;;;;;;;;;5075744;28;19993;-57
2024/01/06 06:03:14;;;;;;;;;;;;;;;;;;5095404;28;19912;-56
2024/01/06 06:05:40;;;;;;;;;;;;;;;;;;5096278;28;19942;-54
2024/01/06 06:08:06;;;;;;;;;;;;;;;;;;5094318;28;20261;-57
2024/01/06 06:10:41;;;;;;;;;;;;;;;;;;5084180;28;19912;-58
2024/01/06 06:13:07;;;;;;;;;;;;;;;;;;5090597;28;19919;-57
2024/01/06 06:15:33;;;;;;;;;;;;;;;;;;5089956;28;20015;-58
2024/01/06 06:18:01;;;;;;;;;;;;;;;;;;5094944;28;19951;-57
2024/01/06 06:20:27;;;;;;;;;;;;;;;;;;5094698;28;19912;-57
2024/01/06 06:22:53;;;;;;;;;;;;;;;;;;5095018;28;20006;-56
2024/01/06 06:25:19;;;;;;;;;;;;;;;;;;5091086;28;19955;-56
2024/01/06 06:27:45;;;;;;;;;;;;;;;;;;5095931;28;19912;-58
2024/01/06 06:30:11;;;;;;;;;;;;;;;;;;5083483;28;20015;-56
2024/01/06 06:32:37;;;;;;;;;;;;;;;;;;5081188;28;19913;-56
2024/01/06 06:35:03;;;;;;;;;;;;;;;;;;5094608;28;20299;-58
2024/01/06 06:37:28;;;;;;;;;;;;;;;;;;5094784;28;19922;-56
2024/01/06 06:39:54;;;;;;;;;;;;;;;;;;5089950;28;19962;-56
2024/01/06 06:42:20;;;;;;;;;;;;;;;;;;5078900;28;19974;-52
2024/01/06 06:44:46;;;;;;;;;;;;;;;;;;5093334;28;19916;-53
2024/01/06 06:47:12;;;;;;;;;;;;;;;;;;5087578;28;20024;-51
2024/01/06 06:49:38;;;;;;;;;;;;;;;;;;5093850;28;19961;-53
2024/01/06 06:52:06;;;;;;;;;;;;;;;;;;5094697;28;19965;-53
2024/01/06 06:54:32;;;;;;;;;;;;;;;;;;5095241;28;20005;-52
2024/01/06 06:56:58;;;;;;;;;;;;;;;;;;5093984;28;19974;-54
2024/01/06 06:59:24;;;;;;;;;;;;;;;;;;5091499;28;19918;-52
2024/01/06 07:01:50;;;;;;;;;;;;;;;;;;5094734;28;19916;-52
2024/01/06 07:04:16;;;;;;;;;;;;;;;;;;5092811;28;19908;-54
2024/01/06 07:06:42;;;;;;;;;;;;;;;;;;5093873;28;19999;-54
2024/01/06 07:09:08;;;;;;;;;;;;;;;;;;5091310;28;20368;-54
2024/01/06 07:11:34;;;;;;;;;;;;;;;;;;5081589;28;20005;-53
2024/01/06 07:13:59;;;;;;;;;;;;;;;;;;5093123;28;20022;-50
2024/01/06 07:16:25;;;;;;;;;;;;;;;;;;5092844;28;20278;-52
2024/01/06 07:18:51;;;;;;;;;;;;;;;;;;5093630;28;19918;-50
2024/01/06 07:21:17;;;;;;;;;;;;;;;;;;5092925;28;19916;-53
2024/01/06 07:23:43;;;;;;;;;;;;;;;;;;5092721;28;19916;-53
2024/01/06 07:26:09;;;;;;;;;;;;;;;;;;5093689;28;19958;-51
2024/01/06 07:28:35;;;;;;;;;;;;;;;;;;5090011;28;20376;-50
2024/01/06 07:31:01;;;;;;;;;;;;;;;;;;5076806;28;19913;-50
2024/01/06 07:33:27;;;;;;;;;;;;;;;;;;5093109;28;20292;-52
2024/01/06 07:35:53;;;;;;;;;;;;;;;;;;5093555;28;19916;-49
2024/01/06 07:38:19;;;;;;;;;;;;;;;;;;5093723;28;20002;-50
2024/01/06 07:40:45;;;;;;;;;;;;;;;;;;5093535;28;20406;-53
2024/01/06 07:43:11;;;;;;;;;;;;;;;;;;5094509;28;19912;-52
2024/01/06 07:45:38;;;;;;;;;;;;;;;;;;5093806;28;20004;-52
2024/01/06 07:48:03;;;;;;;;;;;;;;;;;;5092163;28;20287;-53
2024/01/06 07:50:29;;;;;;;;;;;;;;;;;;5093022;28;19995;-53
2024/01/06 07:52:55;;;;;;;;;;;;;;;;;;5092451;28;20002;-55
2024/01/06 07:55:21;;;;;;;;;;;;;;;;;;5093839;28;20398;-53
2024/01/06 07:57:47;;;;;;;;;;;;;;;;;;5093295;28;19917;-55
2024/01/06 08:00:16;;;;;;;;;;;;;;;;;;5089186;28;19924;-53
2024/01/06 08:02:42;;;;;;;;;;;;;;;;;;5085699;28;20017;-55
2024/01/06 08:05:08;;;;;;;;;;;;;;;;;;5092844;28;19951;-52
2024/01/06 08:07:33;;;;;;;;;;;;;;;;;;5091790;28;19973;-49
2024/01/06 08:09:59;;;;;;;;;;;;;;;;;;5091990;28;19948;-55
2024/01/06 08:12:25;;;;;;;;;;;;;;;;;;5082372;28;20398;-54
2024/01/06 08:14:51;;;;;;;;;;;;;;;;;;5085318;28;20012;-52
2024/01/06 08:17:17;;;;;;;;;;;;;;;;;;5087681;28;19912;-53
2024/01/06 08:19:43;;;;;;;;;;;;;;;;;;5087961;28;20681;-54
2024/01/06 08:22:09;;;;;;;;;;;;;;;;;;5079920;28;19931;-51
2024/01/06 08:24:35;;;;;;;;;;;;;;;;;;5087893;28;19951;-49
2024/01/06 08:27:01;;;;;;;;;;;;;;;;;;5084018;28;20298;-54
2024/01/06 08:29:27;;;;;;;;;;;;;;;;;;5086606;28;19924;-52
2024/01/06 08:31:54;;;;;;;;;;;;;;;;;;5092476;28;19922;-52
2024/01/06 08:34:20;;;;;;;;;;;;;;;;;;5091655;28;19908;-52
2024/01/06 08:36:46;;;;;;;;;;;;;;;;;;5079413;28;20299;-52
2024/01/06 08:39:12;;;;;;;;;;;;;;;;;;5091427;28;19916;-50
2024/01/06 08:41:38;;;;;;;;;;;;;;;;;;5092833;28;19912;-51
2024/01/06 08:44:04;;;;;;;;;;;;;;;;;;5091661;28;19943;-51
2024/01/06 08:46:30;;;;;;;;;;;;;;;;;;5079894;28;19908;-49
2024/01/06 08:48:56;;;;;;;;;;;;;;;;;;5089107;28;19919;-53
2024/01/06 08:51:23;;;;;;;;;;;;;;;;;;5090257;28;19944;-52
2024/01/06 08:53:49;;;;;;;;;;;;;;;;;;5086967;28;20376;-53
2024/01/06 08:56:18;;;;;;;;;;;;;;;;;;5088972;28;20053;-51
2024/01/06 08:58:44;;;;;;;;;;;;;;;;;;5086893;28;20394;-52
2024/01/06 09:01:10;;;;;;;;;;;;;;;;;;5083000;28;20019;-51
2024/01/06 09:03:36;;;;;;;;;;;;;;;;;;5085453;28;19919;-52
2024/01/06 09:06:02;;;;;;;;;;;;;;;;;;5091570;28;19946;-51
2024/01/06 09:08:28;;;;;;;;;;;;;;;;;;5090274;28;20269;-50
2024/01/06 09:10:57;;;;;;;;;;;;;;;;;;5091471;28;20011;-52
2024/01/06 09:13:23;;;;;;;;;;;;;;;;;;5080770;28;19965;-51
2024/01/06 09:15:49;;;;;;;;;;;;;;;;;;5085292;28;19919;-49
2024/01/06 09:18:15;;;;;;;;;;;;;;;;;;5091718;28;19920;-52
2024/01/06 09:20:40;;;;;;;;;;;;;;;;;;5091597;28;20415;-52
2024/01/06 09:23:06;;;;;;;;;;;;;;;;;;5089557;28;20062;-52
2024/01/06 09:25:32;;;;;;;;;;;;;;;;;;5091975;28;19922;-53
2024/01/06 09:27:59;;;;;;;;;;;;;;;;;;5089150;28;19975;-49
2024/01/06 09:30:25;;;;;;;;;;;;;;;;;;5091111;28;19908;-52
2024/01/06 09:32:51;;;;;;;;;;;;;;;;;;5086279;28;19916;-52
2024/01/06 09:35:17;;;;;;;;;;;;;;;;;;5087027;28;19919;-52
2024/01/06 09:37:43;;;;;;;;;;;;;;;;;;5089885;28;20493;-52
2024/01/06 09:40:09;;;;;;;;;;;;;;;;;;5083392;28;20011;-51
2024/01/06 09:42:35;;;;;;;;;;;;;;;;;;5089628;28;19967;-51
2024/01/06 09:45:01;;;;;;;;;;;;;;;;;;5086078;28;20372;-52
2024/01/06 09:47:27;;;;;;;;;;;;;;;;;;5090349;28;19960;-54
2024/01/06 09:49:54;;;;;;;;;;;;;;;;;;5085145;28;20277;-53
2024/01/06 09:52:20;;;;;;;;;;;;;;;;;;5087704;28;20003;-50
2024/01/06 09:54:46;;;;;;;;;;;;;;;;;;5088185;28;20104;-52
2024/01/06 09:57:12;;;;;;;;;;;;;;;;;;5089966;28;19912;-53
2024/01/06 09:59:38;;;;;;;;;;;;;;;;;;5084956;28;19931;-53
2024/01/06 10:02:05;;;;;;;;;;;;;;;;;;5089107;28;20359;-54
2024/01/06 10:04:31;;;;;;;;;;;;;;;;;;5083030;28;20441;-51
2024/01/06 10:06:56;;;;;;;;;;;;;;;;;;5088459;28;20276;-50
2024/01/06 10:09:23;;;;;;;;;;;;;;;;;;5090188;28;19927;-52
2024/01/06 10:11:49;;;;;;;;;;;;;;;;;;5090687;28;19912;-53
2024/01/06 10:14:15;;;;;;;;;;;;;;;;;;5088778;28;19970;-53
2024/01/06 10:16:41;;;;;;;;;;;;;;;;;;5084827;28;20054;-52
2024/01/06 10:19:06;;;;;;;;;;;;;;;;;;5080318;28;19973;-52
2024/01/06 10:21:32;;;;;;;;;;;;;;;;;;5083685;28;20388;-52
2024/01/06 10:23:59;;;;;;;;;;;;;;;;;;5080226;28;19999;-52
2024/01/06 10:26:25;;;;;;;;;;;;;;;;;;5080167;28;20401;-52
2024/01/06 10:28:51;;;;;;;;;;;;;;;;;;5089694;28;19981;-52
2024/01/06 10:31:17;;;;;;;;;;;;;;;;;;5089719;28;19918;-50
2024/01/06 10:33:43;;;;;;;;;;;;;;;;;;5090710;28;20000;-52
2024/01/06 10:36:09;;;;;;;;;;;;;;;;;;5085728;28;20398;-50
2024/01/06 10:38:35;;;;;;;;;;;;;;;;;;5085494;28;19916;-52
2024/01/06 10:41:07;;;;;;;;;;;;;;;;;;5089795;28;19952;-52
2024/01/06 10:43:36;;;;;;;;;;;;;;;;;;5090485;28;20011;-54
2024/01/06 10:46:04;;;;;;;;;;;;;;;;;;5091970;28;19912;-52
2024/01/06 10:48:30;;;;;;;;;;;;;;;;;;5093681;28;20428;-52
2024/01/06 10:50:56;;;;;;;;;;;;;;;;;;5091825;28;19982;-53
2024/01/06 10:53:25;;;;;;;;;;;;;;;;;;5092521;28;19911;-50
2024/01/06 10:55:51;;;;;;;;;;;;;;;;;;5090703;28;19913;-52
2024/01/06 10:58:17;;;;;;;;;;;;;;;;;;5092660;28;19963;-49
2024/01/06 11:00:43;;;;;;;;;;;;;;;;;;5093347;28;20363;-52
2024/01/06 11:03:08;;;;;;;;;;;;;;;;;;5091145;28;19926;-50
2024/01/06 11:05:34;;;;;;;;;;;;;;;;;;5083949;28;19920;-53
2024/01/06 11:08:01;;;;;;;;;;;;;;;;;;5087938;28;19912;-52
2024/01/06 11:10:29;;;;;;;;;;;;;;;;;;5079930;28;19912;-51
2024/01/06 11:12:55;;;;;;;;;;;;;;;;;;5086452;28;19916;-53
2024/01/06 11:15:21;;;;;;;;;;;;;;;;;;5080184;28;20452;-52
2024/01/06 11:17:47;;;;;;;;;;;;;;;;;;5085571;28;19992;-52
2024/01/06 11:20:13;;;;;;;;;;;;;;;;;;5092089;28;20557;-50
2024/01/06 11:22:39;;;;;;;;;;;;;;;;;;5093783;28;19970;-56
2024/01/06 11:25:06;;;;;;;;;;;;;;;;;;5092387;28;19931;-56
2024/01/06 11:27:32;;;;;;;;;;;;;;;;;;5085718;28;19962;-56
2024/01/06 11:29:58;;;;;;;;;;;;;;;;;;5094053;28;20372;-56
2024/01/06 11:32:24;;;;;;;;;;;;;;;;;;5093756;28;19974;-57
2024/01/06 11:34:50;;;;;;;;;;;;;;;;;;5086873;28;19912;-56
2024/01/06 11:37:17;;;;;;;;;;;;;;;;;;5093066;28;20426;-56
2024/01/06 11:39:43;;;;;;;;;;;;;;;;;;5090541;28;19916;-57
2024/01/06 11:42:09;;;;;;;;;;;;;;;;;;5086900;28;20013;-55
2024/01/06 11:44:35;;;;;;;;;;;;;;;;;;5083007;28;19917;-56
2024/01/06 11:47:02;;;;;;;;;;;;;;;;;;5080443;28;19918;-56
2024/01/06 11:49:28;;;;;;;;;;;;;;;;;;5093343;28;19916;-57
2024/01/06 11:51:54;;;;;;;;;;;;;;;;;;5081576;28;19989;-56
2024/01/06 11:54:20;;;;;;;;;;;;;;;;;;5091964;28;19995;-57
2024/01/06 11:56:46;;;;;;;;;;;;;;;;;;5087183;28;19949;-55
2024/01/06 11:59:12;;;;;;;;;;;;;;;;;;5086697;28;19940;-56
2024/01/06 12:01:38;;;;;;;;;;;;;;;;;;5093428;28;19912;-56
2024/01/06 12:04:05;;;;;;;;;;;;;;;;;;5091835;28;19933;-53
2024/01/06 12:06:30;;;;;;;;;;;;;;;;;;5090814;28;20375;-53
2024/01/06 12:08:56;;;;;;;;;;;;;;;;;;5090044;28;19951;-53
2024/01/06 12:11:22;;;;;;;;;;;;;;;;;;5090940;28;19912;-56
2024/01/06 12:13:48;;;;;;;;;;;;;;;;;;5092393;28;19912;-56
2024/01/06 12:16:14;;;;;;;;;;;;;;;;;;5085199;28;19913;-56
2024/01/06 12:18:40;;;;;;;;;;;;;;;;;;5086321;28;20326;-56
2024/01/06 12:21:06;;;;;;;;;;;;;;;;;;5089919;28;20073;-55
2024/01/06 12:23:32;;;;;;;;;;;;;;;;;;5092335;28;19912;-56
2024/01/06 12:25:58;;;;;;;;;;;;;;;;;;5088930;28;19919;-56
2024/01/06 12:28:24;;;;;;;;;;;;;;;;;;5092189;28;19928;-56
2024/01/06 12:30:50;;;;;;;;;;;;;;;;;;5091785;28;19908;-55
2024/01/06 12:33:16;;;;;;;;;;;;;;;;;;5092353;28;20406;-51
2024/01/06 12:35:42;;;;;;;;;;;;;;;;;;5091256;28;19959;-53
2024/01/06 12:38:08;;;;;;;;;;;;;;;;;;5090529;28;19958;-53
2024/01/06 12:40:34;;;;;;;;;;;;;;;;;;5088905;28;20005;-49
2024/01/06 12:43:00;;;;;;;;;;;;;;;;;;5086265;28;19916;-51
2024/01/06 12:45:27;;;;;;;;;;;;;;;;;;5088382;28;20386;-51
2024/01/06 12:47:54;;;;;;;;;;;;;;;;;;5091850;28;19916;-52
2024/01/06 12:50:20;;;;;;;;;;;;;;;;;;5075910;28;19912;-52
2024/01/06 12:52:45;;;;;;;;;;;;;;;;;;5086828;28;19999;-52
2024/01/06 12:55:12;;;;;;;;;;;;;;;;;;5091678;28;20010;-52
2024/01/06 12:57:38;;;;;;;;;;;;;;;;;;5092440;28;20406;-52
2024/01/06 13:00:05;;;;;;;;;;;;;;;;;;5091059;28;19916;-51
2024/01/06 13:02:31;;;;;;;;;;;;;;;;;;5079314;28;19974;-52
2024/01/06 13:04:57;;;;;;;;;;;;;;;;;;5090973;28;19916;-52
2024/01/06 13:07:23;;;;;;;;;;;;;;;;;;5091941;28;19997;-53
2024/01/06 13:09:50;;;;;;;;;;;;;;;;;;5084995;28;19912;-50
2024/01/06 13:12:18;;;;;;;;;;;;;;;;;;5091012;28;20380;-52
2024/01/06 13:14:47;;;;;;;;;;;;;;;;;;5091555;28;19912;-54
2024/01/06 13:17:14;;;;;;;;;;;;;;;;;;5089956;28;19927;-53
2024/01/06 13:19:39;;;;;;;;;;;;;;;;;;5090673;28;19923;-51
2024/01/06 13:22:05;;;;;;;;;;;;;;;;;;5090210;28;20344;-53
2024/01/06 13:24:31;;;;;;;;;;;;;;;;;;5090762;28;19951;-53
2024/01/06 13:26:58;;;;;;;;;;;;;;;;;;5087318;28;19923;-52
2024/01/06 13:29:24;;;;;;;;;;;;;;;;;;5090135;28;19924;-50
2024/01/06 13:31:50;;;;;;;;;;;;;;;;;;5091397;28;19918;-49
2024/01/06 13:34:16;;;;;;;;;;;;;;;;;;5090715;28;19912;-50
2024/01/06 13:36:42;;;;;;;;;;;;;;;;;;5088487;28;19956;-51
2024/01/06 13:39:08;;;;;;;;;;;;;;;;;;5091175;28;20730;-55
2024/01/06 13:41:34;;;;;;;;;;;;;;;;;;5080750;28;19935;-52
2024/01/06 13:44:00;;;;;;;;;;;;;;;;;;5091549;28;19908;-52
2024/01/06 13:46:25;;;;;;;;;;;;;;;;;;5087194;28;19951;-54
2024/01/06 13:48:51;;;;;;;;;;;;;;;;;;5090501;28;19970;-52
2024/01/06 13:51:17;;;;;;;;;;;;;;;;;;5089174;28;20052;-51
2024/01/06 13:53:43;;;;;;;;;;;;;;;;;;5089250;28;19999;-51
2024/01/06 13:56:09;;;;;;;;;;;;;;;;;;5087538;28;19965;-52
2024/01/06 13:58:36;;;;;;;;;;;;;;;;;;5085784;28;19955;-52
2024/01/06 14:01:01;;;;;;;;;;;;;;;;;;5087124;28;20023;-53
2024/01/06 14:03:27;;;;;;;;;;;;;;;;;;5090786;28;20023;-52
2024/01/06 14:05:53;;;;;;;;;;;;;;;;;;5088594;28;19927;-51
2024/01/06 14:08:19;;;;;;;;;;;;;;;;;;5089192;28;20337;-53
2024/01/06 14:10:45;;;;;;;;;;;;;;;;;;5087138;28;19916;-55
2024/01/06 14:13:11;;;;;;;;;;;;;;;;;;5086269;28;20026;-53
2024/01/06 14:15:38;;;;;;;;;;;;;;;;;;5089919;28;20049;-51
2024/01/06 14:18:03;;;;;;;;;;;;;;;;;;5087739;28;20315;-53
2024/01/06 14:20:31;;;;;;;;;;;;;;;;;;5079030;28;19950;-54
2024/01/06 14:22:58;;;;;;;;;;;;;;;;;;5095441;28;20345;-53
2024/01/06 14:25:24;;;;;;;;;;;;;;;;;;5095389;28;19908;-53
2024/01/06 14:27:50;;;;;;;;;;;;;;;;;;5089977;28;20066;-54
2024/01/06 14:30:16;;;;;;;;;;;;;;;;;;5086916;28;19916;-53
2024/01/06 14:32:42;;;;;;;;;;;;;;;;;;5094733;28;19935;-54
2024/01/06 14:35:11;;;;;;;;;;;;;;;;;;5091711;28;20319;-50
2024/01/06 14:37:37;;;;;;;;;;;;;;;;;;5091553;28;19912;-53
2024/01/06 14:40:05;;;;;;;;;;;;;;;;;;5094882;28;20012;-54
2024/01/06 14:42:31;;;;;;;;;;;;;;;;;;5090773;28;19927;-53
2024/01/06 14:44:57;;;;;;;;;;;;;;;;;;5093954;28;19955;-53
2024/01/06 14:47:23;;;;;;;;;;;;;;;;;;5091852;28;20341;-54
2024/01/06 14:49:49;;;;;;;;;;;;;;;;;;5094381;28;19923;-52
2024/01/06 14:52:16;;;;;;;;;;;;;;;;;;5093602;28;20591;-56
2024/01/06 14:54:42;;;;;;;;;;;;;;;;;;5086118;28;19916;-52
2024/01/06 14:57:08;;;;;;;;;;;;;;;;;;5088502;28;20056;-54
2024/01/06 14:59:36;;;;;;;;;;;;;;;;;;5094466;28;20015;-52
2024/01/06 15:02:02;;;;;;;;;;;;;;;;;;5094917;28;19923;-51
2024/01/06 15:04:28;;;;;;;;;;;;;;;;;;5086538;28;19944;-53
2024/01/06 15:06:54;;;;;;;;;;;;;;;;;;5090296;28;20376;-54
2024/01/06 15:09:20;;;;;;;;;;;;;;;;;;5094054;28;19911;-55
2024/01/06 15:11:46;;;;;;;;;;;;;;;;;;5094129;28;20656;-53
2024/01/06 15:14:12;;;;;;;;;;;;;;;;;;5085364;28;20359;-51
2024/01/06 15:16:38;;;;;;;;;;;;;;;;;;5094964;28;19916;-55
2024/01/06 15:19:04;;;;;;;;;;;;;;;;;;5093394;28;19958;-54
2024/01/06 15:21:33;;;;;;;;;;;;;;;;;;5084408;28;19927;-55
2024/01/06 15:23:59;;;;;;;;;;;;;;;;;;5093842;28;19954;-55
2024/01/06 15:26:25;;;;;;;;;;;;;;;;;;5094142;28;19951;-55
2024/01/06 15:28:51;;;;;;;;;;;;;;;;;;5086639;28;20410;-55
2024/01/06 15:31:16;;;;;;;;;;;;;;;;;;5091464;28;19962;-54
2024/01/06 15:33:47;;;;;;;;;;;;;;;;;;5091250;28;21561;-55
2024/01/06 15:36:13;;;;;;;;;;;;;;;;;;5086945;28;19916;-55
2024/01/06 15:38:39;;;;;;;;;;;;;;;;;;5086677;28;19962;-54
2024/01/06 15:41:06;;;;;;;;;;;;;;;;;;5093066;28;20269;-52
2024/01/06 15:43:32;;;;;;;;;;;;;;;;;;5085316;28;19916;-54
2024/01/06 15:45:58;;;;;;;;;;;;;;;;;;5084352;28;20401;-54
2024/01/06 15:48:24;;;;;;;;;;;;;;;;;;5092564;28;20379;-51
2024/01/06 15:50:52;;;;;;;;;;;;;;;;;;5087393;28;19955;-54
2024/01/06 15:53:17;;;;;;;;;;;;;;;;;;5089782;28;19912;-55
2024/01/06 15:55:43;;;;;;;;;;;;;;;;;;5094009;28;20030;-54
2024/01/06 15:58:09;;;;;;;;;;;;;;;;;;5084295;28;20276;-54
2024/01/06 16:00:35;;;;;;;;;;;;;;;;;;5079747;28;19916;-54
2024/01/06 16:03:02;;;;;;;;;;;;;;;;;;5093721;28;19916;-52
2024/01/06 16:05:28;;;;;;;;;;;;;;;;;;5093168;28;19916;-52
2024/01/06 16:07:54;;;;;;;;;;;;;;;;;;5086598;28;19960;-52
2024/01/06 16:10:21;;;;;;;;;;;;;;;;;;5083781;28;19974;-53
2024/01/06 16:12:47;;;;;;;;;;;;;;;;;;5091209;28;19912;-52
2024/01/06 16:15:13;;;;;;;;;;;;;;;;;;5091771;28;20364;-52
2024/01/06 16:17:39;;;;;;;;;;;;;;;;;;5086166;28;19963;-51
2024/01/06 16:20:05;;;;;;;;;;;;;;;;;;5083018;28;20287;-53
2024/01/06 16:22:31;;;;;;;;;;;;;;;;;;5093499;28;19920;-51
2024/01/06 16:24:57;;;;;;;;;;;;;;;;;;5092617;28;20280;-52
2024/01/06 16:27:23;;;;;;;;;;;;;;;;;;5086571;28;19955;-51
2024/01/06 16:29:49;;;;;;;;;;;;;;;;;;5091413;28;20027;-51
2024/01/06 16:32:15;;;;;;;;;;;;;;;;;;5088454;28;19941;-51
2024/01/06 16:34:41;;;;;;;;;;;;;;;;;;5090813;28;19970;-52
2024/01/06 16:37:07;;;;;;;;;;;;;;;;;;5091399;28;19923;-56